Terminal Aerodrome Forecast
Issued by NWS

Home | Current Version | Previous Version | Text Only | Print | Product List | Glossary On
Versions: 1 2 3 4 5 6 7 8 9 10 11 12 13 14 15 16 17 18 19 20 21 22 23 24 25 26 27 28 29 30
000
FTUS43 KSGF 072325
TAFBBG
TAF
KBBG 072325Z 0800/0824 VRB03KT P6SM OVC050
     FM080300 01009KT P6SM OVC035
     FM080500 34009KT P6SM OVC025
     FM080800 33009KT P6SM BKN030
     FM081000 33009KT P6SM SKC
     FM081400 32010G17KT P6SM SKC=

USA.gov is the U.S. government's official web portal to all federal, state and local government web resources and services.